sensor_id;sensor_type;location;lat;lon;timestamp;P1;durP1;ratioP1;P2;durP2;ratioP2
17193;SDS011;8713;48.388;10.928;2022-10-31T07:49:20;6.97;;;2.88;;
17193;SDS011;8713;48.388;10.928;2022-10-31T07:51:04;6.32;;;2.72;;
17193;SDS011;8713;48.388;10.928;2022-10-31T07:53:09;6.07;;;2.72;;
17193;SDS011;8713;48.388;10.928;2022-10-31T07:54:29;6.00;;;2.85;;
17193;SDS011;8713;48.388;10.928;2022-10-31T07:55:38;7.28;;;3.28;;
17193;SDS011;8713;48.388;10.928;2022-10-31T07:56:49;7.43;;;3.08;;
17193;SDS011;8713;48.388;10.928;2022-10-31T07:57:59;7.45;;;2.75;;
17193;SDS011;8713;48.388;10.928;2022-10-31T07:59:11;6.68;;;2.97;;
17193;SDS011;8713;48.388;10.928;2022-10-31T08:00:22;5.03;;;2.75;;
17193;SDS011;8713;48.388;10.928;2022-10-31T08:01:32;5.85;;;2.53;;
17193;SDS011;8713;48.388;10.928;2022-10-31T08:03:11;4.45;;;2.90;;
17193;SDS011;8713;48.388;10.928;2022-10-31T08:04:41;7.53;;;3.50;;
17193;SDS011;8713;48.388;10.928;2022-10-31T08:06:10;9.82;;;3.50;;
17193;SDS011;8713;48.388;10.928;2022-10-31T08:07:48;7.55;;;2.83;;
17193;SDS011;8713;48.388;10.928;2022-10-31T08:09:02;8.55;;;3.10;;
17193;SDS011;8713;48.388;10.928;2022-10-31T08:10:14;7.80;;;2.58;;
17193;SDS011;8713;48.388;10.928;2022-10-31T08:11:23;12.85;;;3.17;;
17193;SDS011;8713;48.388;10.928;2022-10-31T08:12:33;9.75;;;2.88;;
17193;SDS011;8713;48.388;10.928;2022-10-31T08:13:42;7.05;;;2.92;;
17193;SDS011;8713;48.388;10.928;2022-10-31T08:14:54;11.55;;;2.90;;
17193;SDS011;8713;48.388;10.928;2022-10-31T08:16:04;8.93;;;3.03;;
17193;SDS011;8713;48.388;10.928;2022-10-31T08:17:19;6.55;;;2.80;;
17193;SDS011;8713;48.388;10.928;2022-10-31T08:18:36;9.43;;;3.00;;
17193;SDS011;8713;48.388;10.928;2022-10-31T08:19:47;10.13;;;2.40;;
17193;SDS011;8713;48.388;10.928;2022-10-31T08:20:58;7.18;;;2.53;;
17193;SDS011;8713;48.388;10.928;2022-10-31T08:22:07;6.90;;;2.67;;
17193;SDS011;8713;48.388;10.928;2022-10-31T08:23:17;6.05;;;2.88;;
17193;SDS011;8713;48.388;10.928;2022-10-31T08:24:27;8.38;;;2.53;;
17193;SDS011;8713;48.388;10.928;2022-10-31T08:25:39;6.93;;;2.67;;
17193;SDS011;8713;48.388;10.928;2022-10-31T08:26:50;5.45;;;2.78;;
17193;SDS011;8713;48.388;10.928;2022-10-31T08:28:01;8.23;;;3.20;;
17193;SDS011;8713;48.388;10.928;2022-10-31T08:29:10;7.85;;;2.97;;
17193;SDS011;8713;48.388;10.928;2022-10-31T08:30:21;8.50;;;2.80;;
17193;SDS011;8713;48.388;10.928;2022-10-31T08:31:52;7.32;;;2.70;;
17193;SDS011;8713;48.388;10.928;2022-10-31T08:33:33;9.35;;;2.95;;
17193;SDS011;8713;48.388;10.928;2022-10-31T08:35:01;6.15;;;2.90;;
17193;SDS011;8713;48.388;10.928;2022-10-31T08:36:29;8.25;;;2.70;;
17193;SDS011;8713;48.388;10.928;2022-10-31T08:37:51;6.30;;;2.78;;
17193;SDS011;8713;48.388;10.928;2022-10-31T08:39:07;8.27;;;2.78;;
17193;SDS011;8713;48.388;10.928;2022-10-31T08:40:16;6.57;;;2.67;;
17193;SDS011;8713;48.388;10.928;2022-10-31T08:41:26;5.80;;;2.70;;
17193;SDS011;8713;48.388;10.928;2022-10-31T08:42:35;6.85;;;3.13;;
17193;SDS011;8713;48.388;10.928;2022-10-31T08:43:45;9.65;;;2.95;;
17193;SDS011;8713;48.388;10.928;2022-10-31T08:44:55;8.65;;;3.30;;
17193;SDS011;8713;48.388;10.928;2022-10-31T08:46:05;10.55;;;3.35;;
17193;SDS011;8713;48.388;10.928;2022-10-31T08:47:14;7.55;;;2.90;;
17193;SDS011;8713;48.388;10.928;2022-10-31T08:48:24;6.38;;;3.28;;
17193;SDS011;8713;48.388;10.928;2022-10-31T08:49:35;9.32;;;3.08;;
17193;SDS011;8713;48.388;10.928;2022-10-31T08:50:45;8.63;;;3.25;;
17193;SDS011;8713;48.388;10.928;2022-10-31T08:51:54;6.55;;;3.00;;
17193;SDS011;8713;48.388;10.928;2022-10-31T08:53:07;7.28;;;3.25;;
17193;SDS011;8713;48.388;10.928;2022-10-31T08:54:22;8.32;;;2.92;;
17193;SDS011;8713;48.388;10.928;2022-10-31T08:55:37;6.60;;;3.25;;
17193;SDS011;8713;48.388;10.928;2022-10-31T08:57:04;10.30;;;3.80;;
17193;SDS011;8713;48.388;10.928;2022-10-31T08:58:23;9.13;;;3.53;;
17193;SDS011;8713;48.388;10.928;2022-10-31T08:59:36;10.95;;;3.20;;
17193;SDS011;8713;48.388;10.928;2022-10-31T09:01:04;7.20;;;2.67;;
17193;SDS011;8713;48.388;10.928;2022-10-31T09:02:13;9.05;;;3.28;;
17193;SDS011;8713;48.388;10.928;2022-10-31T09:03:24;9.52;;;3.20;;
17193;SDS011;8713;48.388;10.928;2022-10-31T09:04:36;8.05;;;3.15;;
17193;SDS011;8713;48.388;10.928;2022-10-31T09:05:45;8.85;;;3.20;;
17193;SDS011;8713;48.388;10.928;2022-10-31T09:06:55;10.35;;;3.72;;
17193;SDS011;8713;48.388;10.928;2022-10-31T09:08:05;10.57;;;3.20;;
17193;SDS011;8713;48.388;10.928;2022-10-31T09:09:15;8.70;;;3.00;;
17193;SDS011;8713;48.388;10.928;2022-10-31T09:10:28;5.82;;;3.03;;
17193;SDS011;8713;48.388;10.928;2022-10-31T09:14:25;7.95;;;3.15;;
17193;SDS011;8713;48.388;10.928;2022-10-31T09:18:08;6.97;;;3.05;;
17193;SDS011;8713;48.388;10.928;2022-10-31T09:19:27;11.13;;;3.00;;
17193;SDS011;8713;48.388;10.928;2022-10-31T09:20:37;7.07;;;3.20;;
17193;SDS011;8713;48.388;10.928;2022-10-31T09:21:51;8.02;;;3.40;;
17193;SDS011;8713;48.388;10.928;2022-10-31T09:24:17;6.82;;;3.05;;
17193;SDS011;8713;48.388;10.928;2022-10-31T09:25:26;9.45;;;2.97;;
17193;SDS011;8713;48.388;10.928;2022-10-31T09:26:57;12.35;;;3.30;;
17193;SDS011;8713;48.388;10.928;2022-10-31T09:28:10;6.55;;;3.03;;
17193;SDS011;8713;48.388;10.928;2022-10-31T09:29:21;6.55;;;2.80;;
17193;SDS011;8713;48.388;10.928;2022-10-31T09:30:37;8.45;;;3.15;;
17193;SDS011;8713;48.388;10.928;2022-10-31T09:31:46;9.32;;;2.97;;
17193;SDS011;8713;48.388;10.928;2022-10-31T09:33:11;9.07;;;3.40;;
17193;SDS011;8713;48.388;10.928;2022-10-31T09:34:24;9.55;;;3.47;;
17193;SDS011;8713;48.388;10.928;2022-10-31T09:35:48;7.78;;;3.72;;
17193;SDS011;8713;48.388;10.928;2022-10-31T09:36:58;12.02;;;4.03;;
17193;SDS011;8713;48.388;10.928;2022-10-31T09:38:14;8.73;;;3.75;;
17193;SDS011;8713;48.388;10.928;2022-10-31T09:39:28;9.13;;;3.55;;
17193;SDS011;8713;48.388;10.928;2022-10-31T09:40:44;8.98;;;3.85;;
17193;SDS011;8713;48.388;10.928;2022-10-31T09:44:00;10.52;;;3.75;;
17193;SDS011;8713;48.388;10.928;2022-10-31T09:45:25;9.95;;;4.05;;
17193;SDS011;8713;48.388;10.928;2022-10-31T09:50:21;12.70;;;4.82;;
17193;SDS011;8713;48.388;10.928;2022-10-31T09:51:37;9.20;;;4.40;;
17193;SDS011;8713;48.388;10.928;2022-10-31T09:55:55;8.98;;;4.70;;
17193;SDS011;8713;48.388;10.928;2022-10-31T09:57:04;9.40;;;4.47;;
17193;SDS011;8713;48.388;10.928;2022-10-31T09:58:15;9.70;;;4.70;;
17193;SDS011;8713;48.388;10.928;2022-10-31T09:59:35;12.50;;;4.82;;
17193;SDS011;8713;48.388;10.928;2022-10-31T10:00:48;12.95;;;5.22;;
17193;SDS011;8713;48.388;10.928;2022-10-31T10:01:59;15.07;;;5.57;;
17193;SDS011;8713;48.388;10.928;2022-10-31T10:03:39;14.73;;;5.90;;
17193;SDS011;8713;48.388;10.928;2022-10-31T10:05:13;19.65;;;5.38;;
17193;SDS011;8713;48.388;10.928;2022-10-31T10:06:49;11.65;;;5.22;;
17193;SDS011;8713;48.388;10.928;2022-10-31T10:08:20;17.15;;;5.25;;
17193;SDS011;8713;48.388;10.928;2022-10-31T10:09:41;14.55;;;5.50;;
17193;SDS011;8713;48.388;10.928;2022-10-31T10:15:32;15.05;;;5.60;;
17193;SDS011;8713;48.388;10.928;2022-10-31T10:21:39;12.65;;;5.80;;
17193;SDS011;8713;48.388;10.928;2022-10-31T10:26:29;10.73;;;5.40;;
17193;SDS011;8713;48.388;10.928;2022-10-31T10:27:57;14.45;;;5.70;;
17193;SDS011;8713;48.388;10.928;2022-10-31T10:29:50;10.52;;;5.07;;
17193;SDS011;8713;48.388;10.928;2022-10-31T10:31:13;10.90;;;4.93;;
17193;SDS011;8713;48.388;10.928;2022-10-31T10:32:37;9.75;;;3.85;;
17193;SDS011;8713;48.388;10.928;2022-10-31T10:36:30;13.20;;;6.85;;
17193;SDS011;8713;48.388;10.928;2022-10-31T10:37:56;11.77;;;5.72;;
17193;SDS011;8713;48.388;10.928;2022-10-31T10:39:20;10.35;;;5.78;;
17193;SDS011;8713;48.388;10.928;2022-10-31T10:40:34;10.30;;;5.20;;
17193;SDS011;8713;48.388;10.928;2022-10-31T10:41:49;11.63;;;4.78;;
17193;SDS011;8713;48.388;10.928;2022-10-31T10:43:33;13.38;;;5.30;;
17193;SDS011;8713;48.388;10.928;2022-10-31T10:44:46;11.85;;;5.13;;
17193;SDS011;8713;48.388;10.928;2022-10-31T10:46:16;13.13;;;5.20;;
17193;SDS011;8713;48.388;10.928;2022-10-31T10:47:59;13.35;;;4.93;;
17193;SDS011;8713;48.388;10.928;2022-10-31T10:50:53;13.50;;;4.85;;
17193;SDS011;8713;48.388;10.928;2022-10-31T10:55:33;10.32;;;4.93;;
17193;SDS011;8713;48.388;10.928;2022-10-31T10:56:50;8.90;;;4.82;;
17193;SDS011;8713;48.388;10.928;2022-10-31T10:58:09;10.77;;;5.10;;
17193;SDS011;8713;48.388;10.928;2022-10-31T10:59:19;14.05;;;5.90;;
17193;SDS011;8713;48.388;10.928;2022-10-31T11:00:45;9.90;;;5.32;;
17193;SDS011;8713;48.388;10.928;2022-10-31T11:01:55;13.90;;;5.82;;
17193;SDS011;8713;48.388;10.928;2022-10-31T11:03:05;12.98;;;5.40;;
17193;SDS011;8713;48.388;10.928;2022-10-31T11:04:21;11.10;;;5.55;;
17193;SDS011;8713;48.388;10.928;2022-10-31T11:06:58;13.00;;;5.40;;
17193;SDS011;8713;48.388;10.928;2022-10-31T11:08:25;11.85;;;5.13;;
17193;SDS011;8713;48.388;10.928;2022-10-31T11:09:36;14.73;;;6.15;;
17193;SDS011;8713;48.388;10.928;2022-10-31T11:10:55;14.15;;;6.25;;
17193;SDS011;8713;48.388;10.928;2022-10-31T11:12:20;15.13;;;6.50;;
17193;SDS011;8713;48.388;10.928;2022-10-31T11:13:35;12.27;;;6.50;;
17193;SDS011;8713;48.388;10.928;2022-10-31T11:14:47;11.82;;;5.68;;
17193;SDS011;8713;48.388;10.928;2022-10-31T11:16:25;14.80;;;7.13;;
17193;SDS011;8713;48.388;10.928;2022-10-31T11:17:39;11.45;;;5.78;;
17193;SDS011;8713;48.388;10.928;2022-10-31T11:18:49;15.40;;;6.90;;
17193;SDS011;8713;48.388;10.928;2022-10-31T11:20:02;12.85;;;6.38;;
17193;SDS011;8713;48.388;10.928;2022-10-31T11:21:33;15.43;;;6.88;;
17193;SDS011;8713;48.388;10.928;2022-10-31T11:22:44;13.15;;;6.20;;
17193;SDS011;8713;48.388;10.928;2022-10-31T11:24:28;14.23;;;6.32;;
17193;SDS011;8713;48.388;10.928;2022-10-31T11:25:36;15.15;;;7.38;;
17193;SDS011;8713;48.388;10.928;2022-10-31T11:26:47;12.60;;;7.05;;
17193;SDS011;8713;48.388;10.928;2022-10-31T11:29:13;13.52;;;7.22;;
17193;SDS011;8713;48.388;10.928;2022-10-31T11:30:35;15.68;;;6.55;;
17193;SDS011;8713;48.388;10.928;2022-10-31T11:31:53;17.27;;;6.35;;
17193;SDS011;8713;48.388;10.928;2022-10-31T11:33:04;14.20;;;6.30;;
17193;SDS011;8713;48.388;10.928;2022-10-31T11:35:46;14.88;;;6.07;;
17193;SDS011;8713;48.388;10.928;2022-10-31T11:37:01;13.85;;;6.22;;
17193;SDS011;8713;48.388;10.928;2022-10-31T11:38:23;14.02;;;6.30;;
17193;SDS011;8713;48.388;10.928;2022-10-31T11:39:44;10.93;;;6.22;;
17193;SDS011;8713;48.388;10.928;2022-10-31T11:42:26;11.02;;;5.40;;
17193;SDS011;8713;48.388;10.928;2022-10-31T11:43:38;14.75;;;6.43;;
17193;SDS011;8713;48.388;10.928;2022-10-31T11:44:47;12.00;;;6.63;;
17193;SDS011;8713;48.388;10.928;2022-10-31T11:45:57;13.35;;;6.85;;
17193;SDS011;8713;48.388;10.928;2022-10-31T11:47:09;16.02;;;6.47;;
17193;SDS011;8713;48.388;10.928;2022-10-31T11:48:24;12.60;;;5.57;;
17193;SDS011;8713;48.388;10.928;2022-10-31T11:49:35;9.40;;;6.07;;
17193;SDS011;8713;48.388;10.928;2022-10-31T11:50:52;11.43;;;6.07;;
17193;SDS011;8713;48.388;10.928;2022-10-31T11:52:12;13.10;;;6.35;;
17193;SDS011;8713;48.388;10.928;2022-10-31T11:53:30;12.77;;;5.88;;
17193;SDS011;8713;48.388;10.928;2022-10-31T11:54:48;12.13;;;6.10;;
17193;SDS011;8713;48.388;10.928;2022-10-31T11:56:25;14.88;;;5.97;;
17193;SDS011;8713;48.388;10.928;2022-10-31T11:57:49;14.63;;;6.55;;
17193;SDS011;8713;48.388;10.928;2022-10-31T11:59:04;12.02;;;6.20;;
17193;SDS011;8713;48.388;10.928;2022-10-31T12:00:23;15.32;;;6.05;;
17193;SDS011;8713;48.388;10.928;2022-10-31T12:01:39;11.82;;;5.85;;
17193;SDS011;8713;48.388;10.928;2022-10-31T12:02:49;12.30;;;5.80;;
17193;SDS011;8713;48.388;10.928;2022-10-31T12:04:09;16.02;;;6.68;;
17193;SDS011;8713;48.388;10.928;2022-10-31T12:06:41;10.70;;;6.05;;
17193;SDS011;8713;48.388;10.928;2022-10-31T12:07:54;10.40;;;5.50;;
17193;SDS011;8713;48.388;10.928;2022-10-31T12:09:23;10.10;;;5.68;;
17193;SDS011;8713;48.388;10.928;2022-10-31T12:10:45;11.35;;;5.75;;
17193;SDS011;8713;48.388;10.928;2022-10-31T12:12:29;9.55;;;5.78;;
17193;SDS011;8713;48.388;10.928;2022-10-31T12:15:50;11.57;;;5.82;;
17193;SDS011;8713;48.388;10.928;2022-10-31T12:17:14;12.02;;;5.45;;
17193;SDS011;8713;48.388;10.928;2022-10-31T12:23:20;11.70;;;5.68;;
17193;SDS011;8713;48.388;10.928;2022-10-31T12:26:13;10.63;;;6.25;;
17193;SDS011;8713;48.388;10.928;2022-10-31T12:27:34;11.93;;;5.93;;
17193;SDS011;8713;48.388;10.928;2022-10-31T12:32:54;12.07;;;5.55;;
17193;SDS011;8713;48.388;10.928;2022-10-31T12:36:09;10.02;;;5.15;;
17193;SDS011;8713;48.388;10.928;2022-10-31T12:37:31;11.32;;;5.22;;
17193;SDS011;8713;48.388;10.928;2022-10-31T12:40:57;11.52;;;6.22;;
17193;SDS011;8713;48.388;10.928;2022-10-31T12:42:35;11.30;;;6.05;;
17193;SDS011;8713;48.388;10.928;2022-10-31T12:44:05;10.00;;;6.15;;
17193;SDS011;8713;48.388;10.928;2022-10-31T12:45:28;12.90;;;5.90;;
17193;SDS011;8713;48.388;10.928;2022-10-31T12:50:44;11.45;;;6.00;;
17193;SDS011;8713;48.388;10.928;2022-10-31T12:55:25;13.18;;;6.07;;
17193;SDS011;8713;48.388;10.928;2022-10-31T12:58:14;11.30;;;5.32;;
17193;SDS011;8713;48.388;10.928;2022-10-31T12:59:31;12.00;;;6.15;;
17193;SDS011;8713;48.388;10.928;2022-10-31T13:00:44;10.38;;;5.82;;
17193;SDS011;8713;48.388;10.928;2022-10-31T13:02:19;12.25;;;6.18;;
17193;SDS011;8713;48.388;10.928;2022-10-31T13:03:59;9.35;;;5.57;;
17193;SDS011;8713;48.388;10.928;2022-10-31T13:05:17;12.35;;;5.95;;
17193;SDS011;8713;48.388;10.928;2022-10-31T13:06:45;11.93;;;5.72;;
17193;SDS011;8713;48.388;10.928;2022-10-31T13:09:11;11.00;;;5.60;;
17193;SDS011;8713;48.388;10.928;2022-10-31T13:10:32;10.98;;;5.90;;
17193;SDS011;8713;48.388;10.928;2022-10-31T13:11:53;16.85;;;6.43;;
17193;SDS011;8713;48.388;10.928;2022-10-31T13:13:10;12.18;;;6.45;;
17193;SDS011;8713;48.388;10.928;2022-10-31T13:14:47;11.70;;;5.95;;
17193;SDS011;8713;48.388;10.928;2022-10-31T13:16:04;12.90;;;6.63;;
17193;SDS011;8713;48.388;10.928;2022-10-31T13:18:42;11.65;;;5.53;;
17193;SDS011;8713;48.388;10.928;2022-10-31T13:19:57;9.40;;;6.05;;
17193;SDS011;8713;48.388;10.928;2022-10-31T13:21:26;11.02;;;5.55;;
17193;SDS011;8713;48.388;10.928;2022-10-31T13:23:21;12.90;;;5.63;;
17193;SDS011;8713;48.388;10.928;2022-10-31T13:24:41;8.40;;;5.03;;
17193;SDS011;8713;48.388;10.928;2022-10-31T13:26:46;12.18;;;5.05;;
17193;SDS011;8713;48.388;10.928;2022-10-31T13:28:00;9.13;;;6.03;;
17193;SDS011;8713;48.388;10.928;2022-10-31T13:29:21;9.32;;;4.82;;
17193;SDS011;8713;48.388;10.928;2022-10-31T13:30:38;10.73;;;5.43;;
17193;SDS011;8713;48.388;10.928;2022-10-31T13:31:49;9.43;;;6.15;;
17193;SDS011;8713;48.388;10.928;2022-10-31T13:34:51;9.52;;;5.43;;
17193;SDS011;8713;48.388;10.928;2022-10-31T13:38:54;9.65;;;5.38;;
17193;SDS011;8713;48.388;10.928;2022-10-31T13:40:37;9.95;;;5.47;;
17193;SDS011;8713;48.388;10.928;2022-10-31T13:41:55;8.65;;;5.45;;
17193;SDS011;8713;48.388;10.928;2022-10-31T13:45:20;9.60;;;4.85;;
17193;SDS011;8713;48.388;10.928;2022-10-31T13:47:41;8.68;;;4.75;;
17193;SDS011;8713;48.388;10.928;2022-10-31T13:48:53;7.55;;;4.75;;
17193;SDS011;8713;48.388;10.928;2022-10-31T13:50:18;8.05;;;5.07;;
17193;SDS011;8713;48.388;10.928;2022-10-31T13:51:34;7.85;;;4.63;;
17193;SDS011;8713;48.388;10.928;2022-10-31T13:52:43;8.70;;;5.05;;
17193;SDS011;8713;48.388;10.928;2022-10-31T13:55:02;9.73;;;4.75;;
17193;SDS011;8713;48.388;10.928;2022-10-31T13:56:14;8.13;;;4.97;;
17193;SDS011;8713;48.388;10.928;2022-10-31T13:57:38;11.00;;;5.45;;
17193;SDS011;8713;48.388;10.928;2022-10-31T13:59:02;11.52;;;5.75;;
17193;SDS011;8713;48.388;10.928;2022-10-31T14:01:30;8.60;;;5.38;;
17193;SDS011;8713;48.388;10.928;2022-10-31T14:02:44;9.85;;;5.18;;
17193;SDS011;8713;48.388;10.928;2022-10-31T14:05:23;9.52;;;4.75;;
17193;SDS011;8713;48.388;10.928;2022-10-31T14:06:37;7.10;;;5.00;;
17193;SDS011;8713;48.388;10.928;2022-10-31T14:07:51;9.20;;;5.43;;
17193;SDS011;8713;48.388;10.928;2022-10-31T14:09:01;8.25;;;5.18;;
17193;SDS011;8713;48.388;10.928;2022-10-31T14:11:57;10.88;;;5.38;;
17193;SDS011;8713;48.388;10.928;2022-10-31T14:13:17;8.82;;;5.88;;
17193;SDS011;8713;48.388;10.928;2022-10-31T14:14:40;8.43;;;5.30;;
17193;SDS011;8713;48.388;10.928;2022-10-31T14:16:01;9.45;;;5.82;;
17193;SDS011;8713;48.388;10.928;2022-10-31T14:17:20;9.95;;;5.13;;
17193;SDS011;8713;48.388;10.928;2022-10-31T14:18:37;8.70;;;5.03;;
17193;SDS011;8713;48.388;10.928;2022-10-31T14:22:32;7.90;;;5.30;;
17193;SDS011;8713;48.388;10.928;2022-10-31T14:23:41;8.65;;;5.82;;
17193;SDS011;8713;48.388;10.928;2022-10-31T14:24:52;8.52;;;5.50;;
17193;SDS011;8713;48.388;10.928;2022-10-31T14:27:43;7.80;;;4.75;;
17193;SDS011;8713;48.388;10.928;2022-10-31T14:28:55;7.43;;;4.80;;
17193;SDS011;8713;48.388;10.928;2022-10-31T14:30:08;7.85;;;5.35;;
17193;SDS011;8713;48.388;10.928;2022-10-31T14:31:28;9.30;;;5.53;;
17193;SDS011;8713;48.388;10.928;2022-10-31T14:33:13;8.10;;;5.20;;
17193;SDS011;8713;48.388;10.928;2022-10-31T14:34:28;9.00;;;5.18;;
17193;SDS011;8713;48.388;10.928;2022-10-31T14:40:29;8.65;;;5.43;;
17193;SDS011;8713;48.388;10.928;2022-10-31T14:43:41;9.07;;;5.35;;
17193;SDS011;8713;48.388;10.928;2022-10-31T14:45:29;7.15;;;4.95;;
17193;SDS011;8713;48.388;10.928;2022-10-31T14:46:55;13.05;;;5.57;;
17193;SDS011;8713;48.388;10.928;2022-10-31T14:50:14;7.60;;;4.75;;
17193;SDS011;8713;48.388;10.928;2022-10-31T14:51:35;7.90;;;5.10;;
17193;SDS011;8713;48.388;10.928;2022-10-31T14:52:50;7.97;;;5.28;;
17193;SDS011;8713;48.388;10.928;2022-10-31T14:54:02;9.90;;;5.38;;
17193;SDS011;8713;48.388;10.928;2022-10-31T14:55:14;8.02;;;5.05;;
17193;SDS011;8713;48.388;10.928;2022-10-31T14:56:25;11.48;;;5.55;;
17193;SDS011;8713;48.388;10.928;2022-10-31T14:57:43;8.93;;;5.45;;
17193;SDS011;8713;48.388;10.928;2022-10-31T14:59:06;9.05;;;5.35;;
17193;SDS011;8713;48.388;10.928;2022-10-31T15:00:21;8.05;;;5.35;;
17193;SDS011;8713;48.388;10.928;2022-10-31T15:01:34;12.48;;;6.97;;
17193;SDS011;8713;48.388;10.928;2022-10-31T15:04:30;8.52;;;5.70;;
17193;SDS011;8713;48.388;10.928;2022-10-31T15:05:42;10.95;;;6.20;;
17193;SDS011;8713;48.388;10.928;2022-10-31T15:07:00;10.25;;;6.68;;
17193;SDS011;8713;48.388;10.928;2022-10-31T15:08:33;10.43;;;6.78;;
17193;SDS011;8713;48.388;10.928;2022-10-31T15:09:58;16.05;;;6.90;;
17193;SDS011;8713;48.388;10.928;2022-10-31T15:11:14;14.70;;;5.57;;
17193;SDS011;8713;48.388;10.928;2022-10-31T15:12:34;8.52;;;4.80;;
17193;SDS011;8713;48.388;10.928;2022-10-31T15:13:51;10.30;;;6.07;;
17193;SDS011;8713;48.388;10.928;2022-10-31T15:15:13;8.88;;;5.75;;
17193;SDS011;8713;48.388;10.928;2022-10-31T15:16:35;9.18;;;5.43;;
17193;SDS011;8713;48.388;10.928;2022-10-31T15:17:57;7.90;;;5.05;;
17193;SDS011;8713;48.388;10.928;2022-10-31T15:19:09;9.48;;;5.25;;
17193;SDS011;8713;48.388;10.928;2022-10-31T15:20:22;12.35;;;6.85;;
17193;SDS011;8713;48.388;10.928;2022-10-31T15:21:35;13.23;;;7.70;;
17193;SDS011;8713;48.388;10.928;2022-10-31T15:22:50;13.20;;;7.43;;
17193;SDS011;8713;48.388;10.928;2022-10-31T15:24:00;11.52;;;6.90;;
17193;SDS011;8713;48.388;10.928;2022-10-31T15:25:20;11.70;;;6.40;;
17193;SDS011;8713;48.388;10.928;2022-10-31T15:26:40;8.18;;;5.60;;
17193;SDS011;8713;48.388;10.928;2022-10-31T15:27:54;9.05;;;5.25;;
17193;SDS011;8713;48.388;10.928;2022-10-31T15:29:05;7.13;;;5.13;;
17193;SDS011;8713;48.388;10.928;2022-10-31T15:30:28;8.30;;;5.43;;
17193;SDS011;8713;48.388;10.928;2022-10-31T15:31:37;10.23;;;6.25;;
17193;SDS011;8713;48.388;10.928;2022-10-31T15:32:47;8.35;;;5.72;;
17193;SDS011;8713;48.388;10.928;2022-10-31T15:34:03;8.55;;;4.85;;
17193;SDS011;8713;48.388;10.928;2022-10-31T15:35:22;9.82;;;5.53;;
17193;SDS011;8713;48.388;10.928;2022-10-31T15:36:37;6.43;;;5.00;;
17193;SDS011;8713;48.388;10.928;2022-10-31T15:37:46;6.88;;;5.35;;
17193;SDS011;8713;48.388;10.928;2022-10-31T15:38:55;8.10;;;5.40;;
17193;SDS011;8713;48.388;10.928;2022-10-31T15:40:11;11.15;;;6.15;;
17193;SDS011;8713;48.388;10.928;2022-10-31T15:41:30;8.48;;;5.72;;
17193;SDS011;8713;48.388;10.928;2022-10-31T15:42:56;7.28;;;5.28;;
17193;SDS011;8713;48.388;10.928;2022-10-31T15:44:56;10.10;;;5.47;;
17193;SDS011;8713;48.388;10.928;2022-10-31T15:45:45;7.80;;;5.43;;
17193;SDS011;8713;48.388;10.928;2022-10-31T15:46:58;9.65;;;5.95;;
17193;SDS011;8713;48.388;10.928;2022-10-31T15:48:16;8.43;;;5.22;;
17193;SDS011;8713;48.388;10.928;2022-10-31T15:49:35;8.75;;;5.97;;
17193;SDS011;8713;48.388;10.928;2022-10-31T15:50:53;10.07;;;5.82;;
17193;SDS011;8713;48.388;10.928;2022-10-31T15:52:05;9.05;;;5.90;;
17193;SDS011;8713;48.388;10.928;2022-10-31T15:54:55;9.68;;;6.32;;
17193;SDS011;8713;48.388;10.928;2022-10-31T15:56:24;10.95;;;6.40;;
17193;SDS011;8713;48.388;10.928;2022-10-31T15:57:42;10.82;;;6.50;;
17193;SDS011;8713;48.388;10.928;2022-10-31T15:58:53;10.20;;;6.28;;
17193;SDS011;8713;48.388;10.928;2022-10-31T16:00:03;10.00;;;5.93;;
17193;SDS011;8713;48.388;10.928;2022-10-31T16:02:37;9.90;;;6.18;;
17193;SDS011;8713;48.388;10.928;2022-10-31T16:05:34;11.60;;;6.15;;
17193;SDS011;8713;48.388;10.928;2022-10-31T16:06:58;10.23;;;6.28;;
17193;SDS011;8713;48.388;10.928;2022-10-31T16:08:23;9.95;;;6.25;;
17193;SDS011;8713;48.388;10.928;2022-10-31T16:09:50;11.70;;;6.43;;
17193;SDS011;8713;48.388;10.928;2022-10-31T16:12:20;10.90;;;6.75;;
17193;SDS011;8713;48.388;10.928;2022-10-31T16:13:36;11.65;;;7.10;;
17193;SDS011;8713;48.388;10.928;2022-10-31T16:14:49;9.45;;;6.32;;
17193;SDS011;8713;48.388;10.928;2022-10-31T16:16:02;9.82;;;7.25;;
17193;SDS011;8713;48.388;10.928;2022-10-31T16:17:18;9.02;;;6.63;;
17193;SDS011;8713;48.388;10.928;2022-10-31T16:18:35;12.50;;;7.35;;
17193;SDS011;8713;48.388;10.928;2022-10-31T16:19:49;9.18;;;6.82;;
17193;SDS011;8713;48.388;10.928;2022-10-31T16:21:34;10.32;;;6.35;;
17193;SDS011;8713;48.388;10.928;2022-10-31T16:22:47;10.65;;;6.60;;
17193;SDS011;8713;48.388;10.928;2022-10-31T16:24:03;9.45;;;6.60;;
17193;SDS011;8713;48.388;10.928;2022-10-31T16:25:25;9.98;;;7.68;;
17193;SDS011;8713;48.388;10.928;2022-10-31T16:26:48;8.50;;;6.90;;
17193;SDS011;8713;48.388;10.928;2022-10-31T16:28:02;10.45;;;7.13;;
17193;SDS011;8713;48.388;10.928;2022-10-31T16:29:24;11.48;;;7.88;;
17193;SDS011;8713;48.388;10.928;2022-10-31T16:30:42;10.18;;;7.30;;
17193;SDS011;8713;48.388;10.928;2022-10-31T16:31:53;9.85;;;7.18;;
17193;SDS011;8713;48.388;10.928;2022-10-31T16:33:03;10.60;;;7.03;;
17193;SDS011;8713;48.388;10.928;2022-10-31T16:34:14;9.20;;;6.20;;
17193;SDS011;8713;48.388;10.928;2022-10-31T16:35:32;8.10;;;6.13;;
17193;SDS011;8713;48.388;10.928;2022-10-31T16:36:43;7.45;;;5.97;;
17193;SDS011;8713;48.388;10.928;2022-10-31T16:37:53;9.23;;;5.68;;
17193;SDS011;8713;48.388;10.928;2022-10-31T16:39:03;6.63;;;5.40;;
17193;SDS011;8713;48.388;10.928;2022-10-31T16:40:13;7.82;;;6.03;;
17193;SDS011;8713;48.388;10.928;2022-10-31T16:41:23;8.88;;;5.35;;
17193;SDS011;8713;48.388;10.928;2022-10-31T16:42:33;6.65;;;5.28;;
17193;SDS011;8713;48.388;10.928;2022-10-31T16:43:43;6.15;;;5.18;;
17193;SDS011;8713;48.388;10.928;2022-10-31T16:44:52;6.63;;;5.30;;
17193;SDS011;8713;48.388;10.928;2022-10-31T16:46:02;5.57;;;4.88;;
17193;SDS011;8713;48.388;10.928;2022-10-31T16:47:13;6.32;;;5.05;;
17193;SDS011;8713;48.388;10.928;2022-10-31T16:48:24;5.20;;;4.47;;
17193;SDS011;8713;48.388;10.928;2022-10-31T16:49:33;5.65;;;4.68;;
17193;SDS011;8713;48.388;10.928;2022-10-31T16:50:43;4.90;;;4.13;;
17193;SDS011;8713;48.388;10.928;2022-10-31T16:51:52;5.30;;;4.25;;
17193;SDS011;8713;48.388;10.928;2022-10-31T16:53:02;5.30;;;4.20;;
17193;SDS011;8713;48.388;10.928;2022-10-31T16:54:12;4.93;;;4.43;;
17193;SDS011;8713;48.388;10.928;2022-10-31T16:55:21;5.25;;;4.45;;
17193;SDS011;8713;48.388;10.928;2022-10-31T16:56:31;5.32;;;4.60;;
17193;SDS011;8713;48.388;10.928;2022-10-31T16:57:44;6.07;;;4.10;;
17193;SDS011;8713;48.388;10.928;2022-10-31T16:58:55;5.07;;;4.25;;
17193;SDS011;8713;48.388;10.928;2022-10-31T17:00:05;6.80;;;4.43;;
17193;SDS011;8713;48.388;10.928;2022-10-31T17:01:15;5.40;;;4.63;;
17193;SDS011;8713;48.388;10.928;2022-10-31T17:02:24;5.03;;;4.35;;
17193;SDS011;8713;48.388;10.928;2022-10-31T17:03:34;6.40;;;4.93;;
17193;SDS011;8713;48.388;10.928;2022-10-31T17:04:44;5.75;;;4.75;;
17193;SDS011;8713;48.388;10.928;2022-10-31T17:05:53;6.72;;;4.85;;
17193;SDS011;8713;48.388;10.928;2022-10-31T17:07:05;7.78;;;5.20;;
17193;SDS011;8713;48.388;10.928;2022-10-31T17:08:15;6.95;;;4.93;;
17193;SDS011;8713;48.388;10.928;2022-10-31T17:09:25;6.22;;;5.13;;
17193;SDS011;8713;48.388;10.928;2022-10-31T17:10:34;7.05;;;5.72;;
17193;SDS011;8713;48.388;10.928;2022-10-31T17:11:45;5.32;;;4.70;;
17193;SDS011;8713;48.388;10.928;2022-10-31T17:12:56;5.82;;;5.10;;
17193;SDS011;8713;48.388;10.928;2022-10-31T17:14:07;5.95;;;5.18;;
17193;SDS011;8713;48.388;10.928;2022-10-31T17:15:24;6.97;;;5.60;;
17193;SDS011;8713;48.388;10.928;2022-10-31T17:16:36;6.57;;;5.47;;
17193;SDS011;8713;48.388;10.928;2022-10-31T17:17:46;6.30;;;5.70;;